Time;durP1;ratioP1;P1;durP2;ratioP2;P2;SDS_P1;SDS_P2;PMS_P1;PMS_P2;Temp;Humidity;BMP_temperature;BMP_pressure;BME280_temperature;BME280_humidity;BME280_pressure;Samples;Min_cycle;Max_cycle;Signal;HPM_P1;HPM_P2
2021/12/11 00:00:52;;;;;;;;;;;13.80;68.80;;;;;;5100277;28;19935;-71
2021/12/11 00:03:25;;;;;;;;;;;13.80;68.80;;;;;;5100158;28;19908;-71
2021/12/11 00:05:54;;;;;;;;;;;13.80;68.80;;;;;;5100073;28;19907;-71
2021/12/11 00:08:22;;;;;;;;;;;13.80;68.60;;;;;;5099838;28;19908;-71
2021/12/11 00:10:50;;;;;;;;;;;13.80;68.70;;;;;;5100324;28;19951;-71
2021/12/11 00:13:19;;;;;;;;;;;13.80;68.70;;;;;;5100032;28;19942;-71
2021/12/11 00:15:46;;;;;;;;;;;13.80;68.70;;;;;;5099928;28;19912;-71
2021/12/11 00:18:15;;;;;;;;;;;13.80;68.70;;;;;;5099558;28;19900;-71
2021/12/11 00:20:43;;;;;;;;;;;13.80;68.70;;;;;;5099952;28;19906;-71
2021/12/11 00:23:09;;;;;;;;;;;13.80;68.80;;;;;;5099986;28;19931;-71
2021/12/11 00:25:44;;;;;;;;;;;13.80;68.80;;;;;;5099960;28;19908;-72
2021/12/11 00:28:10;;;;;;;;;;;13.80;68.80;;;;;;5099881;28;19915;-71
2021/12/11 00:30:42;;;;;;;;;;;13.80;68.60;;;;;;5099806;28;19900;-71
2021/12/11 00:33:10;;;;;;;;;;;13.90;68.70;;;;;;5081800;28;20196;-70
2021/12/11 00:35:37;;;;;;;;;;;13.80;68.50;;;;;;5099798;28;20092;-71
2021/12/11 00:38:08;;;;;;;;;;;13.80;68.60;;;;;;5099753;28;19935;-72
2021/12/11 00:40:34;;;;;;;;;;;13.80;68.70;;;;;;5099752;28;20196;-72
2021/12/11 00:43:03;;;;;;;;;;;13.80;68.70;;;;;;5099803;28;19908;-71
2021/12/11 00:45:31;;;;;;;;;;;13.80;68.70;;;;;;5099817;28;19919;-71
2021/12/11 00:47:58;;;;;;;;;;;13.80;68.60;;;;;;5099740;28;19903;-70
2021/12/11 00:50:26;;;;;;;;;;;13.80;68.70;;;;;;5099716;28;19908;-71
2021/12/11 00:52:56;;;;;;;;;;;13.80;68.60;;;;;;5099671;28;19908;-71
2021/12/11 00:55:22;;;;;;;;;;;13.90;69.20;;;;;;5099428;28;19919;-71
2021/12/11 00:57:49;;;;;;;;;;;13.90;68.60;;;;;;5099674;28;19915;-71
2021/12/11 01:00:20;;;;;;;;;;;13.90;68.70;;;;;;5099605;28;19915;-71
2021/12/11 01:02:46;;;;;;;;;;;13.90;68.60;;;;;;5099537;28;19923;-71
2021/12/11 01:05:11;;;;;;;;;;;13.80;68.60;;;;;;5099502;28;19907;-71
2021/12/11 01:07:38;;;;;;;;;;;13.90;68.70;;;;;;5081351;28;19923;-71
2021/12/11 01:10:30;;;;;;;;;;;13.90;68.70;;;;;;5099450;28;19915;-71
2021/12/11 01:13:02;;;;;;;;;;;13.90;68.50;;;;;;5094495;28;19900;-71
2021/12/11 01:15:32;;;;;;;;;;;13.90;68.50;;;;;;5099534;28;20006;-71
2021/12/11 01:18:22;;;;;;;;;;;13.80;68.70;;;;;;5099463;28;19934;-70
2021/12/11 01:20:56;;;;;;;;;;;13.90;68.70;;;;;;5102188;28;20143;-71
2021/12/11 01:26:03;;;;;;;;;;;13.80;68.60;;;;;;5103043;28;19915;-71
2021/12/11 01:28:30;;;;;;;;;;;13.90;68.70;;;;;;5102803;28;19908;-71
2021/12/11 01:30:56;;;;;;;;;;;13.80;68.50;;;;;;5102812;28;19900;-71
2021/12/11 01:33:22;;;;;;;;;;;13.90;68.60;;;;;;5102783;28;19899;-70
2021/12/11 01:35:47;;;;;;;;;;;13.90;68.60;;;;;;5102614;28;19919;-71
2021/12/11 01:38:15;;;;;;;;;;;13.80;68.60;;;;;;5102596;28;19908;-70
2021/12/11 01:40:42;;;;;;;;;;;13.80;68.60;;;;;;5102704;28;20244;-71
2021/12/11 01:43:09;;;;;;;;;;;13.90;68.70;;;;;;5102591;28;19907;-72
2021/12/11 01:45:35;;;;;;;;;;;13.90;68.50;;;;;;5102523;28;19908;-71
2021/12/11 01:48:01;;;;;;;;;;;13.90;68.50;;;;;;5102590;28;19904;-71
2021/12/11 01:50:30;;;;;;;;;;;13.90;68.50;;;;;;5102482;28;19900;-71
2021/12/11 01:52:58;;;;;;;;;;;13.90;68.60;;;;;;5102484;28;19907;-70
2021/12/11 01:55:24;;;;;;;;;;;13.90;68.60;;;;;;5102208;28;20108;-71
2021/12/11 01:57:51;;;;;;;;;;;13.90;68.40;;;;;;5102311;28;19908;-71
2021/12/11 02:00:34;;;;;;;;;;;13.90;68.70;;;;;;5102339;28;19904;-71
2021/12/11 02:03:01;;;;;;;;;;;13.90;68.50;;;;;;5102273;28;19908;-71
2021/12/11 02:05:29;;;;;;;;;;;13.90;68.50;;;;;;5102223;28;20188;-72
2021/12/11 02:07:56;;;;;;;;;;;13.90;68.40;;;;;;5102078;28;19907;-71
2021/12/11 02:10:34;;;;;;;;;;;13.90;68.40;;;;;;5102118;28;19904;-71
2021/12/11 02:13:04;;;;;;;;;;;13.90;68.70;;;;;;5102046;28;19915;-71
2021/12/11 02:15:35;;;;;;;;;;;13.90;68.60;;;;;;5102007;28;19912;-72
2021/12/11 02:18:12;;;;;;;;;;;13.90;68.60;;;;;;5101942;28;19907;-72
2021/12/11 02:20:44;;;;;;;;;;;13.90;68.60;;;;;;5101908;28;19908;-71
2021/12/11 02:23:11;;;;;;;;;;;13.90;68.50;;;;;;5101798;28;19953;-71
2021/12/11 02:25:40;;;;;;;;;;;13.90;68.50;;;;;;5101740;28;20005;-71
2021/12/11 02:28:09;;;;;;;;;;;13.90;68.40;;;;;;5101692;28;19900;-70
2021/12/11 02:31:01;;;;;;;;;;;13.90;68.50;;;;;;5101559;28;20286;-71
2021/12/11 02:33:29;;;;;;;;;;;13.90;68.60;;;;;;5090541;28;19937;-71
2021/12/11 02:36:15;;;;;;;;;;;13.90;68.50;;;;;;5101429;28;19919;-71
2021/12/11 02:38:44;;;;;;;;;;;13.90;68.60;;;;;;5101571;28;20219;-71
2021/12/11 02:41:19;;;;;;;;;;;13.90;68.50;;;;;;5101529;28;20422;-71
2021/12/11 02:43:48;;;;;;;;;;;13.90;68.50;;;;;;5101333;28;19908;-71
2021/12/11 02:46:16;;;;;;;;;;;13.90;68.40;;;;;;5101398;28;19923;-72
2021/12/11 02:48:45;;;;;;;;;;;13.90;68.30;;;;;;5083144;28;19915;-72
2021/12/11 02:51:17;;;;;;;;;;;13.90;68.40;;;;;;5101335;28;19928;-71
2021/12/11 02:53:48;;;;;;;;;;;13.90;68.40;;;;;;5101269;28;19915;-72
2021/12/11 02:56:17;;;;;;;;;;;13.90;68.60;;;;;;5101012;28;20099;-71
2021/12/11 02:58:45;;;;;;;;;;;13.90;68.60;;;;;;5101063;28;19914;-70
2021/12/11 03:01:22;;;;;;;;;;;13.90;68.50;;;;;;5100988;28;19900;-71
2021/12/11 03:03:54;;;;;;;;;;;13.90;68.30;;;;;;5101059;28;19911;-71
2021/12/11 03:06:23;;;;;;;;;;;13.90;68.50;;;;;;5101072;28;19935;-70
2021/12/11 03:08:50;;;;;;;;;;;13.90;68.50;;;;;;5100961;28;19900;-71
2021/12/11 03:11:19;;;;;;;;;;;13.90;68.50;;;;;;5082718;28;19922;-71
2021/12/11 03:13:50;;;;;;;;;;;13.90;68.50;;;;;;5100765;28;19998;-71
2021/12/11 03:16:20;;;;;;;;;;;13.90;68.50;;;;;;5082619;28;20096;-71
2021/12/11 03:18:46;;;;;;;;;;;13.90;68.50;;;;;;5100669;28;19900;-71
2021/12/11 03:21:12;;;;;;;;;;;13.90;68.40;;;;;;5100779;28;19900;-70
2021/12/11 03:23:38;;;;;;;;;;;13.90;68.40;;;;;;5100781;28;19919;-71
2021/12/11 03:26:03;;;;;;;;;;;13.90;68.40;;;;;;5082363;28;19908;-73
2021/12/11 03:28:29;;;;;;;;;;;13.90;68.50;;;;;;5082431;28;20417;-73
2021/12/11 03:30:57;;;;;;;;;;;13.90;68.50;;;;;;5100620;28;19919;-72
2021/12/11 03:33:26;;;;;;;;;;;13.90;68.50;;;;;;5100516;28;19930;-71
2021/12/11 03:35:52;;;;;;;;;;;13.90;68.40;;;;;;5100443;28;19904;-71
2021/12/11 03:38:18;;;;;;;;;;;13.90;68.50;;;;;;5100470;28;19940;-72
2021/12/11 03:40:44;;;;;;;;;;;13.90;68.40;;;;;;5100330;28;19908;-71
2021/12/11 03:43:11;;;;;;;;;;;13.90;68.40;;;;;;5099975;28;19907;-71
2021/12/11 03:45:38;;;;;;;;;;;14.00;68.30;;;;;;5100333;28;20199;-70
2021/12/11 03:48:19;;;;;;;;;;;13.90;68.40;;;;;;5100385;28;19900;-70
2021/12/11 03:50:45;;;;;;;;;;;13.90;68.40;;;;;;5100321;28;19912;-71
2021/12/11 03:53:10;;;;;;;;;;;13.90;68.30;;;;;;5100211;28;19972;-71
2021/12/11 03:55:38;;;;;;;;;;;13.90;68.50;;;;;;5099902;28;19912;-71
2021/12/11 03:58:04;;;;;;;;;;;13.90;68.30;;;;;;5100159;28;19946;-72
2021/12/11 04:01:02;;;;;;;;;;;13.90;68.30;;;;;;5100153;28;19908;-71
2021/12/11 04:03:30;;;;;;;;;;;13.90;68.20;;;;;;5044301;28;19908;-71
2021/12/11 04:05:56;;;;;;;;;;;13.90;68.30;;;;;;5099851;28;19968;-71
2021/12/11 04:08:24;;;;;;;;;;;13.90;68.40;;;;;;5100103;28;19908;-71
2021/12/11 04:10:50;;;;;;;;;;;13.90;68.20;;;;;;5100023;28;19908;-70
2021/12/11 04:13:16;;;;;;;;;;;14.00;68.30;;;;;;5099957;28;19900;-71
2021/12/11 04:15:43;;;;;;;;;;;13.90;68.30;;;;;;5100025;28;20192;-72
2021/12/11 04:18:09;;;;;;;;;;;13.90;68.30;;;;;;5099997;28;19900;-72
2021/12/11 04:20:37;;;;;;;;;;;13.90;68.30;;;;;;5099959;28;19908;-71
2021/12/11 04:23:04;;;;;;;;;;;14.00;68.40;;;;;;5099895;28;19980;-72
2021/12/11 04:25:30;;;;;;;;;;;14.00;68.40;;;;;;5099999;28;19911;-72
2021/12/11 04:27:56;;;;;;;;;;;13.90;68.30;;;;;;5099824;28;20249;-71
2021/12/11 04:30:23;;;;;;;;;;;13.90;68.30;;;;;;5099896;28;19900;-71
2021/12/11 04:32:51;;;;;;;;;;;13.90;68.30;;;;;;5099819;28;20152;-71
2021/12/11 04:35:17;;;;;;;;;;;13.90;68.30;;;;;;5099803;28;19900;-71
2021/12/11 04:37:43;;;;;;;;;;;13.90;68.20;;;;;;5099831;28;19908;-71
2021/12/11 04:40:20;;;;;;;;;;;13.90;68.20;;;;;;5081661;28;19907;-70
2021/12/11 04:43:02;;;;;;;;;;;14.00;68.30;;;;;;5099737;28;20176;-70
2021/12/11 04:45:35;;;;;;;;;;;13.90;68.20;;;;;;5099848;28;19915;-71
2021/12/11 04:48:26;;;;;;;;;;;14.00;68.50;;;;;;5081592;28;20108;-70
2021/12/11 04:51:01;;;;;;;;;;;13.90;68.20;;;;;;5099183;28;19915;-70
2021/12/11 04:53:54;;;;;;;;;;;13.90;68.20;;;;;;5099594;28;20216;-71
2021/12/11 04:56:43;;;;;;;;;;;13.90;68.30;;;;;;5103301;28;19955;-70
2021/12/11 05:09:54;;;;;;;;;;;13.90;68.30;;;;;;5103449;28;20116;-72
2021/12/11 05:14:46;;;;;;;;;;;13.90;68.10;;;;;;5103053;28;19907;-71
2021/12/11 05:17:12;;;;;;;;;;;14.00;68.20;;;;;;5103084;28;20073;-71
2021/12/11 05:19:39;;;;;;;;;;;13.90;68.20;;;;;;5103157;28;20003;-70
2021/12/11 05:22:05;;;;;;;;;;;13.90;68.30;;;;;;5102933;28;19938;-71
2021/12/11 05:24:31;;;;;;;;;;;14.00;68.30;;;;;;5103092;28;19900;-71
2021/12/11 05:26:57;;;;;;;;;;;13.90;68.20;;;;;;5102874;28;20209;-71
2021/12/11 05:29:22;;;;;;;;;;;13.90;68.20;;;;;;5102912;28;19907;-72
2021/12/11 05:31:48;;;;;;;;;;;13.90;68.20;;;;;;5102911;28;19907;-71
2021/12/11 05:34:14;;;;;;;;;;;14.00;68.20;;;;;;5103085;28;19907;-71
2021/12/11 05:36:39;;;;;;;;;;;14.00;68.20;;;;;;5102715;28;19912;-71
2021/12/11 05:39:10;;;;;;;;;;;14.00;68.20;;;;;;5102755;28;20099;-71
2021/12/11 05:41:36;;;;;;;;;;;14.00;68.10;;;;;;5102648;28;19900;-71
2021/12/11 05:44:01;;;;;;;;;;;14.00;68.10;;;;;;5102621;28;19906;-71
2021/12/11 05:46:27;;;;;;;;;;;14.00;68.20;;;;;;5102594;28;19908;-71
2021/12/11 05:48:53;;;;;;;;;;;14.00;68.10;;;;;;5102588;28;19981;-71
2021/12/11 05:51:22;;;;;;;;;;;14.00;68.30;;;;;;5102648;28;19904;-71
2021/12/11 05:53:50;;;;;;;;;;;14.00;68.20;;;;;;5102567;28;19908;-71
2021/12/11 05:56:17;;;;;;;;;;;14.00;68.20;;;;;;5102208;28;19912;-72
2021/12/11 06:01:17;;;;;;;;;;;14.00;68.20;;;;;;5102517;28;19904;-71
2021/12/11 06:03:43;;;;;;;;;;;14.00;68.30;;;;;;5102269;28;20386;-72
2021/12/11 06:06:09;;;;;;;;;;;13.90;68.30;;;;;;5101723;28;19907;-71
2021/12/11 06:08:35;;;;;;;;;;;14.00;68.20;;;;;;5102104;28;19908;-71
2021/12/11 06:11:03;;;;;;;;;;;13.90;68.20;;;;;;5102159;28;19900;-71
2021/12/11 06:13:29;;;;;;;;;;;14.00;68.30;;;;;;5102048;28;20158;-71
2021/12/11 06:15:55;;;;;;;;;;;14.00;68.20;;;;;;5101932;28;19979;-70
2021/12/11 06:18:21;;;;;;;;;;;14.00;68.10;;;;;;5102040;28;20191;-70
2021/12/11 06:20:47;;;;;;;;;;;14.00;68.30;;;;;;5101860;28;19938;-71
2021/12/11 06:23:14;;;;;;;;;;;14.00;68.10;;;;;;5101883;28;20038;-73
2021/12/11 06:25:40;;;;;;;;;;;14.00;68.30;;;;;;5101861;28;19971;-72
2021/12/11 06:28:06;;;;;;;;;;;14.00;68.20;;;;;;5083649;28;19900;-71
2021/12/11 06:30:32;;;;;;;;;;;14.00;68.10;;;;;;5101729;28;19900;-71
2021/12/11 06:32:58;;;;;;;;;;;14.00;68.30;;;;;;5101726;28;20424;-71
2021/12/11 06:35:35;;;;;;;;;;;14.00;68.10;;;;;;5083466;28;20134;-71
2021/12/11 06:38:02;;;;;;;;;;;14.00;68.30;;;;;;5101634;28;19900;-71
2021/12/11 06:40:28;;;;;;;;;;;14.00;68.30;;;;;;5101534;28;20157;-71
2021/12/11 06:42:53;;;;;;;;;;;14.00;68.00;;;;;;5101461;28;19973;-71
2021/12/11 06:45:20;;;;;;;;;;;14.00;68.20;;;;;;5101482;28;20200;-71
2021/12/11 06:47:46;;;;;;;;;;;14.00;67.90;;;;;;5101173;28;20077;-71
2021/12/11 06:50:12;;;;;;;;;;;14.00;68.10;;;;;;5101434;28;19941;-71
2021/12/11 06:52:37;;;;;;;;;;;14.00;67.90;;;;;;5101346;28;19931;-71
2021/12/11 06:55:04;;;;;;;;;;;14.00;68.10;;;;;;5101282;28;19973;-72
2021/12/11 06:57:30;;;;;;;;;;;14.00;68.20;;;;;;5101200;28;19912;-70
2021/12/11 06:59:55;;;;;;;;;;;14.00;68.20;;;;;;5101151;28;20137;-72
2021/12/11 07:02:21;;;;;;;;;;;14.00;68.10;;;;;;5101234;28;19931;-70
2021/12/11 07:04:48;;;;;;;;;;;14.00;68.10;;;;;;5082987;28;20110;-71
2021/12/11 07:07:20;;;;;;;;;;;14.00;68.10;;;;;;5101064;28;19908;-71
2021/12/11 07:09:45;;;;;;;;;;;14.00;68.00;;;;;;5082895;28;19922;-71
2021/12/11 07:12:11;;;;;;;;;;;14.00;67.90;;;;;;5100964;28;19900;-71
2021/12/11 07:14:37;;;;;;;;;;;14.00;68.00;;;;;;5100973;28;19973;-71
2021/12/11 07:17:03;;;;;;;;;;;14.00;68.10;;;;;;5100080;28;19920;-71
2021/12/11 07:19:29;;;;;;;;;;;14.00;68.10;;;;;;5100889;28;19967;-72
2021/12/11 07:21:55;;;;;;;;;;;14.00;68.10;;;;;;5100858;28;19908;-71
2021/12/11 07:24:23;;;;;;;;;;;14.00;68.10;;;;;;5100927;28;19907;-71
2021/12/11 07:26:49;;;;;;;;;;;14.00;68.20;;;;;;5100789;28;19907;-71
2021/12/11 07:29:16;;;;;;;;;;;14.00;67.90;;;;;;5100702;28;20140;-72
2021/12/11 07:31:43;;;;;;;;;;;14.00;67.90;;;;;;5100765;28;19904;-71
2021/12/11 07:34:08;;;;;;;;;;;14.00;67.80;;;;;;5100654;28;19983;-70
2021/12/11 07:36:34;;;;;;;;;;;14.00;67.90;;;;;;5100529;28;19924;-71
2021/12/11 07:39:02;;;;;;;;;;;14.00;67.90;;;;;;5100590;28;19908;-71
2021/12/11 07:41:28;;;;;;;;;;;14.00;67.90;;;;;;5082521;28;19908;-71
2021/12/11 07:43:53;;;;;;;;;;;14.00;67.90;;;;;;5100466;28;20185;-71
2021/12/11 07:46:22;;;;;;;;;;;14.00;67.90;;;;;;5100499;28;20155;-71
2021/12/11 07:48:48;;;;;;;;;;;14.00;67.90;;;;;;5100343;28;19978;-72
2021/12/11 07:51:14;;;;;;;;;;;14.00;67.90;;;;;;5100453;28;20112;-71
2021/12/11 07:53:40;;;;;;;;;;;14.10;67.80;;;;;;5100427;28;19908;-70
2021/12/11 07:56:06;;;;;;;;;;;14.00;67.80;;;;;;5100178;28;19983;-71
2021/12/11 07:58:34;;;;;;;;;;;14.10;67.80;;;;;;5100416;28;20165;-71
2021/12/11 08:01:00;;;;;;;;;;;14.10;67.90;;;;;;5100380;28;19915;-71
2021/12/11 08:03:26;;;;;;;;;;;14.10;67.90;;;;;;5082300;28;19900;-71
2021/12/11 08:05:52;;;;;;;;;;;14.10;67.80;;;;;;5100387;28;19900;-71
2021/12/11 08:08:18;;;;;;;;;;;14.10;67.90;;;;;;5100239;28;19914;-71
2021/12/11 08:10:45;;;;;;;;;;;14.10;67.80;;;;;;5100253;28;20263;-72
2021/12/11 08:13:11;;;;;;;;;;;14.10;67.80;;;;;;5100189;28;19900;-71
2021/12/11 08:15:37;;;;;;;;;;;14.10;67.90;;;;;;5100109;28;19915;-71
2021/12/11 08:18:04;;;;;;;;;;;14.10;67.90;;;;;;5100173;28;19908;-72
2021/12/11 08:20:31;;;;;;;;;;;14.10;67.80;;;;;;5100126;28;19908;-71
2021/12/11 08:22:57;;;;;;;;;;;14.10;67.90;;;;;;5100227;28;19900;-71
2021/12/11 08:25:26;;;;;;;;;;;14.10;67.70;;;;;;5100080;28;19930;-71
2021/12/11 08:27:52;;;;;;;;;;;14.10;67.80;;;;;;5100175;28;19970;-71
2021/12/11 08:30:17;;;;;;;;;;;14.10;67.80;;;;;;5104768;28;19904;-71
2021/12/11 08:32:43;;;;;;;;;;;14.10;67.60;;;;;;5104139;28;19988;-72
2021/12/11 08:35:09;;;;;;;;;;;14.10;67.80;;;;;;5104070;28;19937;-72
2021/12/11 08:37:36;;;;;;;;;;;14.10;67.60;;;;;;5104151;28;19912;-72
2021/12/11 08:40:03;;;;;;;;;;;14.10;67.70;;;;;;5104055;28;20188;-71
2021/12/11 08:42:29;;;;;;;;;;;14.10;67.60;;;;;;5103887;28;20010;-71
2021/12/11 08:45:05;;;;;;;;;;;14.10;67.40;;;;;;5103992;28;20349;-71
2021/12/11 08:47:32;;;;;;;;;;;14.10;67.40;;;;;;5103951;28;20096;-71
2021/12/11 08:49:58;;;;;;;;;;;14.10;67.70;;;;;;5103919;28;19908;-71
2021/12/11 08:52:27;;;;;;;;;;;14.20;67.70;;;;;;5103848;28;20005;-71
2021/12/11 08:54:54;;;;;;;;;;;14.10;67.50;;;;;;5085384;28;20334;-71
2021/12/11 08:57:21;;;;;;;;;;;14.10;67.40;;;;;;5103749;28;19904;-71
2021/12/11 08:59:49;;;;;;;;;;;14.20;67.60;;;;;;5103567;28;19900;-71
2021/12/11 09:02:17;;;;;;;;;;;14.10;67.40;;;;;;5103609;28;19907;-71
2021/12/11 09:04:49;;;;;;;;;;;14.10;67.40;;;;;;5103539;28;20207;-71
2021/12/11 09:07:15;;;;;;;;;;;14.20;67.50;;;;;;5103538;28;20358;-71
2021/12/11 09:09:43;;;;;;;;;;;14.20;67.50;;;;;;5103544;28;19931;-70
2021/12/11 09:12:12;;;;;;;;;;;14.10;67.40;;;;;;5103524;28;19900;-72
2021/12/11 09:14:51;;;;;;;;;;;14.20;67.50;;;;;;5103336;28;20119;-70
2021/12/11 09:17:35;;;;;;;;;;;14.20;67.40;;;;;;5103313;28;19904;-70
2021/12/11 09:20:10;;;;;;;;;;;14.20;67.40;;;;;;5103364;28;19980;-71
2021/12/11 09:22:38;;;;;;;;;;;14.10;67.40;;;;;;5103202;28;19915;-70
2021/12/11 09:25:06;;;;;;;;;;;14.10;67.40;;;;;;5084892;28;19940;-71
2021/12/11 09:27:32;;;;;;;;;;;14.10;67.40;;;;;;5103089;28;20211;-70
2021/12/11 09:30:04;;;;;;;;;;;14.20;67.90;;;;;;5103161;28;19975;-69
2021/12/11 09:32:45;;;;;;;;;;;14.20;67.40;;;;;;5103087;28;19990;-71
2021/12/11 09:35:13;;;;;;;;;;;14.20;67.30;;;;;;5102881;28;20093;-71
2021/12/11 09:37:39;;;;;;;;;;;14.20;67.30;;;;;;5102955;28;19908;-71
2021/12/11 09:40:07;;;;;;;;;;;14.20;67.40;;;;;;5083832;28;20093;-72
2021/12/11 09:42:33;;;;;;;;;;;14.20;67.30;;;;;;5102855;28;20110;-72
2021/12/11 09:45:01;;;;;;;;;;;14.20;67.30;;;;;;5102888;28;19904;-71
2021/12/11 09:47:30;;;;;;;;;;;14.20;67.20;;;;;;5102718;28;19922;-71
2021/12/11 09:49:59;;;;;;;;;;;14.20;67.30;;;;;;5102693;28;19900;-71
2021/12/11 09:52:26;;;;;;;;;;;14.20;67.30;;;;;;5102930;28;19904;-70
2021/12/11 09:55:05;;;;;;;;;;;14.20;67.20;;;;;;5102455;28;19916;-71
2021/12/11 09:57:33;;;;;;;;;;;14.20;67.30;;;;;;5102579;28;19904;-70
2021/12/11 10:00:00;;;;;;;;;;;14.20;67.40;;;;;;5102472;28;19900;-70
2021/12/11 10:02:27;;;;;;;;;;;14.20;67.40;;;;;;5084287;28;19907;-71
2021/12/11 10:04:58;;;;;;;;;;;14.20;67.30;;;;;;5102384;28;19914;-72
2021/12/11 10:09:53;;;;;;;;;;;14.20;67.30;;;;;;5102644;28;19904;-71
2021/12/11 10:12:21;;;;;;;;;;;14.20;67.20;;;;;;5102227;28;19907;-71
2021/12/11 10:14:49;;;;;;;;;;;14.20;67.10;;;;;;5102193;28;19919;-71
2021/12/11 10:17:16;;;;;;;;;;;14.20;67.10;;;;;;5101982;28;20130;-71
2021/12/11 10:19:43;;;;;;;;;;;14.20;67.10;;;;;;5102214;28;19900;-72
2021/12/11 10:22:17;;;;;;;;;;;14.20;67.20;;;;;;5102123;28;19904;-72
2021/12/11 10:24:43;;;;;;;;;;;14.20;67.20;;;;;;5083857;28;19950;-71
2021/12/11 10:27:11;;;;;;;;;;;14.20;67.20;;;;;;5101942;28;19900;-72
2021/12/11 10:29:37;;;;;;;;;;;14.20;67.30;;;;;;5101920;28;19908;-71
2021/12/11 10:32:06;;;;;;;;;;;14.20;67.30;;;;;;5083719;28;19915;-72
2021/12/11 10:34:32;;;;;;;;;;;14.20;67.90;;;;;;5101840;28;19906;-72
2021/12/11 10:37:01;;;;;;;;;;;14.20;67.20;;;;;;5101699;28;20291;-71
2021/12/11 10:39:27;;;;;;;;;;;14.20;67.10;;;;;;5101652;28;20251;-71
2021/12/11 10:41:53;;;;;;;;;;;14.20;67.10;;;;;;5101687;28;19993;-72
2021/12/11 10:44:21;;;;;;;;;;;14.20;67.10;;;;;;5101657;28;19908;-72
2021/12/11 10:47:07;;;;;;;;;;;14.20;67.20;;;;;;5083369;28;19997;-71
2021/12/11 10:49:33;;;;;;;;;;;14.20;67.00;;;;;;5101601;28;20005;-72
2021/12/11 10:52:08;;;;;;;;;;;14.30;67.00;;;;;;5101625;28;20184;-72
2021/12/11 10:54:34;;;;;;;;;;;14.30;67.10;;;;;;5101330;28;20265;-70
2021/12/11 10:56:59;;;;;;;;;;;14.20;67.10;;;;;;5101417;28;19920;-70
2021/12/11 10:59:30;;;;;;;;;;;14.30;67.10;;;;;;5101425;28;20068;-71
2021/12/11 11:02:02;;;;;;;;;;;14.20;67.00;;;;;;5101389;28;19900;-71
2021/12/11 11:04:30;;;;;;;;;;;14.20;67.10;;;;;;5101293;28;19914;-72
2021/12/11 11:06:56;;;;;;;;;;;14.20;67.70;;;;;;5101089;28;19963;-71
2021/12/11 11:09:22;;;;;;;;;;;14.30;66.90;;;;;;5101228;28;19907;-71
2021/12/11 11:11:49;;;;;;;;;;;14.30;66.70;;;;;;5101142;28;19935;-72
2021/12/11 11:14:15;;;;;;;;;;;14.30;66.90;;;;;;5100936;28;19950;-71
2021/12/11 11:16:42;;;;;;;;;;;14.30;67.10;;;;;;5101085;28;19911;-70
2021/12/11 11:19:08;;;;;;;;;;;14.30;67.00;;;;;;5100967;28;20010;-71
2021/12/11 11:21:37;;;;;;;;;;;14.30;67.20;;;;;;5101073;28;19900;-71
2021/12/11 11:24:04;;;;;;;;;;;14.30;67.00;;;;;;5100960;28;19915;-71
2021/12/11 11:26:32;;;;;;;;;;;14.30;67.00;;;;;;5100976;28;19915;-71
2021/12/11 11:28:58;;;;;;;;;;;14.30;66.90;;;;;;5100843;28;19978;-70
2021/12/11 11:31:27;;;;;;;;;;;14.30;66.80;;;;;;5100815;28;19900;-72
2021/12/11 11:33:54;;;;;;;;;;;14.30;67.40;;;;;;5100759;28;19908;-70
2021/12/11 11:36:22;;;;;;;;;;;14.30;66.80;;;;;;5100667;28;19958;-71
2021/12/11 11:38:49;;;;;;;;;;;14.30;66.80;;;;;;5100725;28;19926;-72
2021/12/11 11:41:19;;;;;;;;;;;14.30;66.80;;;;;;5100666;28;20381;-71
2021/12/11 11:43:46;;;;;;;;;;;14.30;66.80;;;;;;5100663;28;19908;-71
2021/12/11 11:46:12;;;;;;;;;;;14.30;66.80;;;;;;5082503;28;19971;-72
2021/12/11 11:48:39;;;;;;;;;;;14.30;67.10;;;;;;5100430;28;19916;-71
2021/12/11 11:51:08;;;;;;;;;;;14.30;66.80;;;;;;5100499;28;20347;-71
2021/12/11 11:53:34;;;;;;;;;;;14.30;66.90;;;;;;5100479;28;19908;-72
2021/12/11 11:56:02;;;;;;;;;;;14.30;66.80;;;;;;5100284;28;19916;-72
2021/12/11 11:58:29;;;;;;;;;;;14.30;67.50;;;;;;5100292;28;19912;-72
2021/12/11 12:00:58;;;;;;;;;;;14.30;66.90;;;;;;5100385;28;19930;-71
2021/12/11 12:03:26;;;;;;;;;;;14.30;66.90;;;;;;5081866;28;19915;-72
2021/12/11 12:05:53;;;;;;;;;;;14.30;66.90;;;;;;5100315;28;19906;-71
2021/12/11 12:08:19;;;;;;;;;;;14.30;66.90;;;;;;5100363;28;19971;-70
2021/12/11 12:10:47;;;;;;;;;;;14.30;66.90;;;;;;5100252;28;19915;-71
2021/12/11 12:13:13;;;;;;;;;;;14.30;66.90;;;;;;5100215;28;19998;-71
2021/12/11 12:15:42;;;;;;;;;;;14.30;67.40;;;;;;5100239;28;19919;-71
2021/12/11 12:18:08;;;;;;;;;;;14.30;66.80;;;;;;5099879;28;19914;-71
2021/12/11 12:20:35;;;;;;;;;;;14.30;66.60;;;;;;5100179;28;20091;-71
2021/12/11 12:23:01;;;;;;;;;;;14.40;66.80;;;;;;5100142;28;19914;-71
2021/12/11 12:25:26;;;;;;;;;;;14.40;66.90;;;;;;5100258;28;19900;-71
2021/12/11 12:27:52;;;;;;;;;;;14.30;67.00;;;;;;5100116;28;19908;-71
2021/12/11 12:30:24;;;;;;;;;;;14.30;66.90;;;;;;5100423;28;19992;-71
2021/12/11 12:32:54;;;;;;;;;;;14.30;66.80;;;;;;5100172;28;19911;-72
2021/12/11 12:35:20;;;;;;;;;;;14.30;66.90;;;;;;5099993;28;19908;-71
2021/12/11 12:37:46;;;;;;;;;;;14.30;66.90;;;;;;5100041;28;19908;-71
2021/12/11 12:40:14;;;;;;;;;;;14.30;66.80;;;;;;5099962;28;20149;-71
2021/12/11 12:42:51;;;;;;;;;;;14.30;66.80;;;;;;5099994;28;19966;-72
2021/12/11 12:45:22;;;;;;;;;;;14.30;66.80;;;;;;5099993;28;19900;-72
2021/12/11 12:47:56;;;;;;;;;;;14.30;66.90;;;;;;5100046;28;19908;-72
2021/12/11 12:50:24;;;;;;;;;;;14.30;67.00;;;;;;5099933;28;19904;-71
2021/12/11 12:52:50;;;;;;;;;;;14.30;66.90;;;;;;5099898;28;19908;-72
2021/12/11 12:55:36;;;;;;;;;;;14.30;67.10;;;;;;5099647;28;19916;-71
2021/12/11 12:58:03;;;;;;;;;;;14.30;67.00;;;;;;5099592;28;19966;-70
2021/12/11 13:00:34;;;;;;;;;;;14.30;67.00;;;;;;5099849;28;19971;-71
2021/12/11 13:03:06;;;;;;;;;;;14.30;67.00;;;;;;5081657;28;19915;-69
2021/12/11 13:05:32;;;;;;;;;;;14.30;66.80;;;;;;5099721;28;19971;-71
2021/12/11 13:08:03;;;;;;;;;;;14.30;66.90;;;;;;5099663;28;20107;-71
2021/12/11 13:10:34;;;;;;;;;;;14.30;67.00;;;;;;5099744;28;19908;-71
2021/12/11 13:13:00;;;;;;;;;;;14.30;67.00;;;;;;5099629;28;19912;-71
2021/12/11 13:15:29;;;;;;;;;;;14.30;66.90;;;;;;5100440;28;20255;-72
2021/12/11 13:17:56;;;;;;;;;;;14.30;67.10;;;;;;5103347;28;19900;-71
2021/12/11 13:20:28;;;;;;;;;;;14.30;67.00;;;;;;5103291;28;19900;-71
2021/12/11 13:22:53;;;;;;;;;;;14.30;67.20;;;;;;5103229;28;20200;-72
2021/12/11 13:25:25;;;;;;;;;;;14.30;67.10;;;;;;5084996;28;20010;-71
2021/12/11 13:27:53;;;;;;;;;;;14.30;67.00;;;;;;5103168;28;20156;-71
2021/12/11 13:30:24;;;;;;;;;;;14.30;67.00;;;;;;5103144;28;19904;-71
2021/12/11 13:32:50;;;;;;;;;;;14.30;67.10;;;;;;5084941;28;20148;-71
2021/12/11 13:35:17;;;;;;;;;;;14.30;67.00;;;;;;5102867;28;19908;-72
2021/12/11 13:37:43;;;;;;;;;;;14.30;67.10;;;;;;5102859;28;19915;-71
2021/12/11 13:40:10;;;;;;;;;;;14.30;66.90;;;;;;5102943;28;19899;-72
2021/12/11 13:42:37;;;;;;;;;;;14.30;67.10;;;;;;5102826;28;20210;-71
2021/12/11 13:45:11;;;;;;;;;;;14.30;67.10;;;;;;5102660;28;19908;-71
2021/12/11 13:47:37;;;;;;;;;;;14.30;67.10;;;;;;5102725;28;19906;-70
2021/12/11 13:50:05;;;;;;;;;;;14.30;67.00;;;;;;5102697;28;19916;-70
2021/12/11 13:52:31;;;;;;;;;;;14.30;66.90;;;;;;5102655;28;19900;-71
2021/12/11 13:54:57;;;;;;;;;;;14.30;67.20;;;;;;5102484;28;19918;-71
2021/12/11 13:57:25;;;;;;;;;;;14.30;67.20;;;;;;5102408;28;19916;-71
2021/12/11 13:59:56;;;;;;;;;;;14.30;67.10;;;;;;5102490;28;19970;-71
2021/12/11 14:02:22;;;;;;;;;;;14.30;67.00;;;;;;5102423;28;19923;-71
2021/12/11 14:04:48;;;;;;;;;;;14.30;67.20;;;;;;5102336;28;19967;-71
2021/12/11 14:07:16;;;;;;;;;;;14.30;67.10;;;;;;5102303;28;19908;-72
2021/12/11 14:09:49;;;;;;;;;;;14.30;67.10;;;;;;5102343;28;19900;-73
2021/12/11 14:12:15;;;;;;;;;;;14.30;67.10;;;;;;5102212;28;19907;-72
2021/12/11 14:14:41;;;;;;;;;;;14.30;67.10;;;;;;5084129;28;19907;-72
2021/12/11 14:17:08;;;;;;;;;;;14.30;67.10;;;;;;5102115;28;19919;-72
2021/12/11 14:19:33;;;;;;;;;;;14.30;67.20;;;;;;5102039;28;19925;-72
2021/12/11 14:22:01;;;;;;;;;;;14.30;67.20;;;;;;5102078;28;20243;-72
2021/12/11 14:24:28;;;;;;;;;;;14.30;67.20;;;;;;5102108;28;20285;-72
2021/12/11 14:26:54;;;;;;;;;;;14.30;67.30;;;;;;5101567;28;19900;-70
2021/12/11 14:29:19;;;;;;;;;;;14.30;67.20;;;;;;5101934;28;19908;-72
2021/12/11 14:31:46;;;;;;;;;;;14.30;67.20;;;;;;5101870;28;19950;-73
2021/12/11 14:34:12;;;;;;;;;;;14.30;67.20;;;;;;5101933;28;20267;-71
2021/12/11 14:36:38;;;;;;;;;;;14.30;67.20;;;;;;5101775;28;19919;-71
2021/12/11 14:39:09;;;;;;;;;;;14.30;67.10;;;;;;5101705;28;19907;-72
2021/12/11 14:41:36;;;;;;;;;;;14.30;67.10;;;;;;5101665;28;19900;-71
2021/12/11 14:44:04;;;;;;;;;;;14.30;67.20;;;;;;5101555;28;19942;-72